Terminal Aerodrome Forecast
Issued by NWS

Home | Current Version | Previous Version | Text Only | Print | Product List | Glossary On
Versions: 1 2 3 4 5 6 7 8 9 10 11 12
000
FTAK31 PAJN 190500
TAFAGY
TAF
PAGY 190521Z 1906/2006 21015G25KT P6SM -RA BKN035 OVC060
     FM191600 21010G20KT 5SM -RA BKN025 OVC050
     FM200300 20010KT 6SM -RA SCT020 BKN035 OVC050
      AMD LTD TO CLD VIS AND WIND=

USA.gov is the U.S. government's official web portal to all federal, state and local government web resources and services.